sensor_id;sensor_type;location;lat;lon;timestamp;pressure;altitude;pressure_sealevel;temperature
16956;BMP180;8594;52.052;8.354;2022-08-21T00:00:27;100751.00;;;21.20
16956;BMP180;8594;52.052;8.354;2022-08-21T00:02:58;100753.00;;;20.90
16956;BMP180;8594;52.052;8.354;2022-08-21T00:05:28;100747.00;;;20.90
16956;BMP180;8594;52.052;8.354;2022-08-21T00:07:55;100750.00;;;21.10
16956;BMP180;8594;52.052;8.354;2022-08-21T00:10:23;100754.00;;;21.40
16956;BMP180;8594;52.052;8.354;2022-08-21T00:12:51;100752.00;;;21.60
16956;BMP180;8594;52.052;8.354;2022-08-21T00:15:24;100769.00;;;21.00
16956;BMP180;8594;52.052;8.354;2022-08-21T00:17:52;100764.00;;;21.20
16956;BMP180;8594;52.052;8.354;2022-08-21T00:20:20;100756.00;;;21.20
16956;BMP180;8594;52.052;8.354;2022-08-21T00:22:48;100770.00;;;21.50
16956;BMP180;8594;52.052;8.354;2022-08-21T00:25:16;100763.00;;;21.50
16956;BMP180;8594;52.052;8.354;2022-08-21T00:27:44;100762.00;;;21.10
16956;BMP180;8594;52.052;8.354;2022-08-21T00:30:15;100769.00;;;21.30
16956;BMP180;8594;52.052;8.354;2022-08-21T00:32:43;100767.00;;;21.10
16956;BMP180;8594;52.052;8.354;2022-08-21T00:35:14;100754.00;;;21.20
16956;BMP180;8594;52.052;8.354;2022-08-21T00:37:41;100748.00;;;21.30
16956;BMP180;8594;52.052;8.354;2022-08-21T00:40:13;100756.00;;;21.90
16956;BMP180;8594;52.052;8.354;2022-08-21T00:42:41;100763.00;;;21.80
16956;BMP180;8594;52.052;8.354;2022-08-21T00:45:10;100761.00;;;21.50
16956;BMP180;8594;52.052;8.354;2022-08-21T00:47:37;100748.00;;;21.90
16956;BMP180;8594;52.052;8.354;2022-08-21T00:50:09;100747.00;;;22.00
16956;BMP180;8594;52.052;8.354;2022-08-21T00:52:37;100745.00;;;21.60
16956;BMP180;8594;52.052;8.354;2022-08-21T00:55:07;100740.00;;;21.70
16956;BMP180;8594;52.052;8.354;2022-08-21T00:57:40;100741.00;;;21.80
16956;BMP180;8594;52.052;8.354;2022-08-21T01:00:15;100740.00;;;21.80
16956;BMP180;8594;52.052;8.354;2022-08-21T01:02:43;100751.00;;;21.30
16956;BMP180;8594;52.052;8.354;2022-08-21T01:05:12;100752.00;;;20.90
16956;BMP180;8594;52.052;8.354;2022-08-21T01:07:41;100735.00;;;21.30
16956;BMP180;8594;52.052;8.354;2022-08-21T01:10:10;100734.00;;;21.00
16956;BMP180;8594;52.052;8.354;2022-08-21T01:12:36;100737.00;;;21.50
16956;BMP180;8594;52.052;8.354;2022-08-21T01:15:05;100745.00;;;21.80
16956;BMP180;8594;52.052;8.354;2022-08-21T01:17:33;100744.00;;;21.10
16956;BMP180;8594;52.052;8.354;2022-08-21T01:20:04;100741.00;;;21.60
16956;BMP180;8594;52.052;8.354;2022-08-21T01:22:33;100740.00;;;21.20
16956;BMP180;8594;52.052;8.354;2022-08-21T01:25:01;100742.00;;;21.30
16956;BMP180;8594;52.052;8.354;2022-08-21T01:27:27;100746.00;;;21.40
16956;BMP180;8594;52.052;8.354;2022-08-21T01:30:03;100740.00;;;21.20
16956;BMP180;8594;52.052;8.354;2022-08-21T01:32:31;100736.00;;;21.30
16956;BMP180;8594;52.052;8.354;2022-08-21T01:34:57;100736.00;;;21.20
16956;BMP180;8594;52.052;8.354;2022-08-21T01:37:24;100727.00;;;21.10
16956;BMP180;8594;52.052;8.354;2022-08-21T01:39:52;100725.00;;;21.10
16956;BMP180;8594;52.052;8.354;2022-08-21T01:42:19;100729.00;;;21.10
16956;BMP180;8594;52.052;8.354;2022-08-21T01:44:46;100732.00;;;21.20
16956;BMP180;8594;52.052;8.354;2022-08-21T01:47:15;100734.00;;;21.20
16956;BMP180;8594;52.052;8.354;2022-08-21T01:49:44;100728.00;;;21.10
16956;BMP180;8594;52.052;8.354;2022-08-21T01:52:11;100729.00;;;21.00
16956;BMP180;8594;52.052;8.354;2022-08-21T01:54:39;100732.00;;;21.30
16956;BMP180;8594;52.052;8.354;2022-08-21T01:57:08;100729.00;;;21.00
16956;BMP180;8594;52.052;8.354;2022-08-21T01:59:35;100726.00;;;20.60
16956;BMP180;8594;52.052;8.354;2022-08-21T02:02:03;100729.00;;;20.60
16956;BMP180;8594;52.052;8.354;2022-08-21T02:04:30;100725.00;;;20.20
16956;BMP180;8594;52.052;8.354;2022-08-21T02:06:57;100733.00;;;20.40
16956;BMP180;8594;52.052;8.354;2022-08-21T02:09:23;100733.00;;;20.60
16956;BMP180;8594;52.052;8.354;2022-08-21T02:11:50;100737.00;;;20.70
16956;BMP180;8594;52.052;8.354;2022-08-21T02:14:19;100738.00;;;20.20
16956;BMP180;8594;52.052;8.354;2022-08-21T02:16:46;100733.00;;;20.60
16956;BMP180;8594;52.052;8.354;2022-08-21T02:19:15;100731.00;;;20.70
16956;BMP180;8594;52.052;8.354;2022-08-21T02:21:42;100734.00;;;20.50
16956;BMP180;8594;52.052;8.354;2022-08-21T02:24:11;100732.00;;;20.30
16956;BMP180;8594;52.052;8.354;2022-08-21T02:26:38;100724.00;;;20.10
16956;BMP180;8594;52.052;8.354;2022-08-21T02:29:05;100723.00;;;19.90
16956;BMP180;8594;52.052;8.354;2022-08-21T02:31:34;100723.00;;;19.80
16956;BMP180;8594;52.052;8.354;2022-08-21T02:34:00;100736.00;;;20.10
16956;BMP180;8594;52.052;8.354;2022-08-21T02:36:28;100729.00;;;20.40
16956;BMP180;8594;52.052;8.354;2022-08-21T02:38:55;100733.00;;;20.30
16956;BMP180;8594;52.052;8.354;2022-08-21T02:41:22;100732.00;;;20.30
16956;BMP180;8594;52.052;8.354;2022-08-21T02:43:49;100722.00;;;20.40
16956;BMP180;8594;52.052;8.354;2022-08-21T02:46:19;100716.00;;;20.40
16956;BMP180;8594;52.052;8.354;2022-08-21T02:48:48;100715.00;;;20.30
16956;BMP180;8594;52.052;8.354;2022-08-21T02:51:19;100712.00;;;20.40
16956;BMP180;8594;52.052;8.354;2022-08-21T02:53:48;100722.00;;;20.50
16956;BMP180;8594;52.052;8.354;2022-08-21T02:56:20;100730.00;;;20.50
16956;BMP180;8594;52.052;8.354;2022-08-21T02:58:50;100716.00;;;20.50
16956;BMP180;8594;52.052;8.354;2022-08-21T03:01:17;100718.00;;;20.80
16956;BMP180;8594;52.052;8.354;2022-08-21T03:03:48;100714.00;;;20.20
16956;BMP180;8594;52.052;8.354;2022-08-21T03:06:18;100713.00;;;20.30
16956;BMP180;8594;52.052;8.354;2022-08-21T03:08:46;100708.00;;;20.40
16956;BMP180;8594;52.052;8.354;2022-08-21T03:11:14;100708.00;;;21.10
16956;BMP180;8594;52.052;8.354;2022-08-21T03:13:42;100707.00;;;20.60
16956;BMP180;8594;52.052;8.354;2022-08-21T03:16:09;100710.00;;;20.80
16956;BMP180;8594;52.052;8.354;2022-08-21T03:18:36;100712.00;;;21.00
16956;BMP180;8594;52.052;8.354;2022-08-21T03:21:05;100706.00;;;21.20
16956;BMP180;8594;52.052;8.354;2022-08-21T03:23:32;100715.00;;;20.80
16956;BMP180;8594;52.052;8.354;2022-08-21T03:25:59;100705.00;;;20.80
16956;BMP180;8594;52.052;8.354;2022-08-21T03:28:26;100714.00;;;20.50
16956;BMP180;8594;52.052;8.354;2022-08-21T03:30:53;100710.00;;;20.60
16956;BMP180;8594;52.052;8.354;2022-08-21T03:33:21;100715.00;;;20.70
16956;BMP180;8594;52.052;8.354;2022-08-21T03:35:56;100712.00;;;20.70
16956;BMP180;8594;52.052;8.354;2022-08-21T03:38:27;100710.00;;;20.60
16956;BMP180;8594;52.052;8.354;2022-08-21T03:40:54;100708.00;;;20.70
16956;BMP180;8594;52.052;8.354;2022-08-21T03:43:21;100716.00;;;20.60
16956;BMP180;8594;52.052;8.354;2022-08-21T03:45:48;100716.00;;;20.70
16956;BMP180;8594;52.052;8.354;2022-08-21T03:48:15;100717.00;;;20.50
16956;BMP180;8594;52.052;8.354;2022-08-21T03:50:43;100720.00;;;20.20
16956;BMP180;8594;52.052;8.354;2022-08-21T03:53:14;100720.00;;;20.40
16956;BMP180;8594;52.052;8.354;2022-08-21T03:55:43;100721.00;;;20.20
16956;BMP180;8594;52.052;8.354;2022-08-21T03:58:10;100718.00;;;20.40
16956;BMP180;8594;52.052;8.354;2022-08-21T04:00:37;100719.00;;;20.10
16956;BMP180;8594;52.052;8.354;2022-08-21T04:03:04;100729.00;;;20.10
16956;BMP180;8594;52.052;8.354;2022-08-21T04:05:32;100729.00;;;20.20
16956;BMP180;8594;52.052;8.354;2022-08-21T04:08:04;100730.00;;;20.20
16956;BMP180;8594;52.052;8.354;2022-08-21T04:10:34;100734.00;;;20.10
16956;BMP180;8594;52.052;8.354;2022-08-21T04:13:04;100737.00;;;20.10
16956;BMP180;8594;52.052;8.354;2022-08-21T04:15:31;100733.00;;;20.10
16956;BMP180;8594;52.052;8.354;2022-08-21T04:17:58;100738.00;;;20.00
16956;BMP180;8594;52.052;8.354;2022-08-21T04:20:26;100735.00;;;19.90
16956;BMP180;8594;52.052;8.354;2022-08-21T04:22:53;100731.00;;;19.90
16956;BMP180;8594;52.052;8.354;2022-08-21T04:25:22;100738.00;;;19.90
16956;BMP180;8594;52.052;8.354;2022-08-21T04:27:51;100734.00;;;20.00
16956;BMP180;8594;52.052;8.354;2022-08-21T04:30:20;100743.00;;;20.40
16956;BMP180;8594;52.052;8.354;2022-08-21T04:32:50;100750.00;;;20.10
16956;BMP180;8594;52.052;8.354;2022-08-21T04:35:20;100746.00;;;19.90
16956;BMP180;8594;52.052;8.354;2022-08-21T04:37:48;100756.00;;;20.00
16956;BMP180;8594;52.052;8.354;2022-08-21T04:40:17;100747.00;;;20.00
16956;BMP180;8594;52.052;8.354;2022-08-21T04:42:48;100752.00;;;19.40
16956;BMP180;8594;52.052;8.354;2022-08-21T04:45:20;100746.00;;;20.00
16956;BMP180;8594;52.052;8.354;2022-08-21T04:47:49;100746.00;;;19.80
16956;BMP180;8594;52.052;8.354;2022-08-21T04:50:17;100750.00;;;20.10
16956;BMP180;8594;52.052;8.354;2022-08-21T04:52:46;100758.00;;;20.10
16956;BMP180;8594;52.052;8.354;2022-08-21T04:55:14;100757.00;;;20.20
16956;BMP180;8594;52.052;8.354;2022-08-21T04:57:42;100758.00;;;20.20
16956;BMP180;8594;52.052;8.354;2022-08-21T05:00:11;100760.00;;;20.10
16956;BMP180;8594;52.052;8.354;2022-08-21T05:02:41;100754.00;;;19.80
16956;BMP180;8594;52.052;8.354;2022-08-21T05:05:08;100761.00;;;19.80
16956;BMP180;8594;52.052;8.354;2022-08-21T05:07:36;100759.00;;;19.60
16956;BMP180;8594;52.052;8.354;2022-08-21T05:10:05;100759.00;;;20.10
16956;BMP180;8594;52.052;8.354;2022-08-21T05:12:33;100760.00;;;20.20
16956;BMP180;8594;52.052;8.354;2022-08-21T05:15:01;100766.00;;;19.80
16956;BMP180;8594;52.052;8.354;2022-08-21T05:17:28;100771.00;;;20.20
16956;BMP180;8594;52.052;8.354;2022-08-21T05:19:56;100766.00;;;20.40
16956;BMP180;8594;52.052;8.354;2022-08-21T05:22:24;100761.00;;;20.10
16956;BMP180;8594;52.052;8.354;2022-08-21T05:24:51;100765.00;;;20.40
16956;BMP180;8594;52.052;8.354;2022-08-21T05:27:19;100753.00;;;20.20
16956;BMP180;8594;52.052;8.354;2022-08-21T05:29:45;100759.00;;;20.70
16956;BMP180;8594;52.052;8.354;2022-08-21T05:32:13;100754.00;;;21.20
16956;BMP180;8594;52.052;8.354;2022-08-21T05:34:40;100756.00;;;21.30
16956;BMP180;8594;52.052;8.354;2022-08-21T05:37:11;100764.00;;;21.30
16956;BMP180;8594;52.052;8.354;2022-08-21T05:39:38;100767.00;;;21.80
16956;BMP180;8594;52.052;8.354;2022-08-21T05:42:05;100763.00;;;22.40
16956;BMP180;8594;52.052;8.354;2022-08-21T05:44:32;100769.00;;;22.90
16956;BMP180;8594;52.052;8.354;2022-08-21T05:47:04;100765.00;;;23.30
16956;BMP180;8594;52.052;8.354;2022-08-21T05:49:31;100767.00;;;23.70
16956;BMP180;8594;52.052;8.354;2022-08-21T05:51:58;100763.00;;;23.20
16956;BMP180;8594;52.052;8.354;2022-08-21T05:54:27;100760.00;;;24.10
16956;BMP180;8594;52.052;8.354;2022-08-21T05:56:54;100756.00;;;24.80
16956;BMP180;8594;52.052;8.354;2022-08-21T05:59:21;100761.00;;;24.70
16956;BMP180;8594;52.052;8.354;2022-08-21T06:01:48;100759.00;;;25.30
16956;BMP180;8594;52.052;8.354;2022-08-21T06:04:18;100765.00;;;25.70
16956;BMP180;8594;52.052;8.354;2022-08-21T06:06:45;100762.00;;;26.20
16956;BMP180;8594;52.052;8.354;2022-08-21T06:09:12;100753.00;;;25.30
16956;BMP180;8594;52.052;8.354;2022-08-21T06:11:41;100758.00;;;26.20
16956;BMP180;8594;52.052;8.354;2022-08-21T06:14:07;100761.00;;;26.50
16956;BMP180;8594;52.052;8.354;2022-08-21T06:16:34;100760.00;;;26.60
16956;BMP180;8594;52.052;8.354;2022-08-21T06:19:01;100764.00;;;26.70
16956;BMP180;8594;52.052;8.354;2022-08-21T06:21:28;100763.00;;;26.60
16956;BMP180;8594;52.052;8.354;2022-08-21T06:23:55;100760.00;;;27.50
16956;BMP180;8594;52.052;8.354;2022-08-21T06:26:22;100764.00;;;27.80
16956;BMP180;8594;52.052;8.354;2022-08-21T06:28:51;100755.00;;;28.00
16956;BMP180;8594;52.052;8.354;2022-08-21T06:31:21;100758.00;;;28.40
16956;BMP180;8594;52.052;8.354;2022-08-21T06:33:49;100762.00;;;27.80
16956;BMP180;8594;52.052;8.354;2022-08-21T06:36:16;100759.00;;;28.70
16956;BMP180;8594;52.052;8.354;2022-08-21T06:38:43;100772.00;;;28.80
16956;BMP180;8594;52.052;8.354;2022-08-21T06:41:10;100768.00;;;28.80
16956;BMP180;8594;52.052;8.354;2022-08-21T06:43:38;100773.00;;;29.20
16956;BMP180;8594;52.052;8.354;2022-08-21T06:46:06;100772.00;;;28.80
16956;BMP180;8594;52.052;8.354;2022-08-21T06:48:33;100772.00;;;28.80
16956;BMP180;8594;52.052;8.354;2022-08-21T06:51:01;100775.00;;;28.90
16956;BMP180;8594;52.052;8.354;2022-08-21T06:53:28;100770.00;;;28.80
16956;BMP180;8594;52.052;8.354;2022-08-21T06:55:55;100771.00;;;29.40
16956;BMP180;8594;52.052;8.354;2022-08-21T06:58:22;100769.00;;;29.50
16956;BMP180;8594;52.052;8.354;2022-08-21T07:00:50;100772.00;;;29.70
16956;BMP180;8594;52.052;8.354;2022-08-21T07:03:25;100769.00;;;28.60
16956;BMP180;8594;52.052;8.354;2022-08-21T07:05:53;100772.00;;;29.40
16956;BMP180;8594;52.052;8.354;2022-08-21T07:08:20;100767.00;;;29.30
16956;BMP180;8594;52.052;8.354;2022-08-21T07:10:48;100768.00;;;29.80
16956;BMP180;8594;52.052;8.354;2022-08-21T07:13:16;100771.00;;;29.60
16956;BMP180;8594;52.052;8.354;2022-08-21T07:15:43;100764.00;;;29.30
16956;BMP180;8594;52.052;8.354;2022-08-21T07:18:11;100757.00;;;29.40
16956;BMP180;8594;52.052;8.354;2022-08-21T07:20:41;100762.00;;;29.70
16956;BMP180;8594;52.052;8.354;2022-08-21T07:23:12;100758.00;;;29.30
16956;BMP180;8594;52.052;8.354;2022-08-21T07:25:40;100764.00;;;30.20
16956;BMP180;8594;52.052;8.354;2022-08-21T07:28:07;100762.00;;;30.30
16956;BMP180;8594;52.052;8.354;2022-08-21T07:30:34;100759.00;;;30.30
16956;BMP180;8594;52.052;8.354;2022-08-21T07:33:01;100753.00;;;29.90
16956;BMP180;8594;52.052;8.354;2022-08-21T07:35:28;100751.00;;;30.30
16956;BMP180;8594;52.052;8.354;2022-08-21T07:37:57;100759.00;;;28.90
16956;BMP180;8594;52.052;8.354;2022-08-21T07:40:25;100755.00;;;30.50
16956;BMP180;8594;52.052;8.354;2022-08-21T07:42:51;100756.00;;;30.40
16956;BMP180;8594;52.052;8.354;2022-08-21T07:45:21;100757.00;;;31.00
16956;BMP180;8594;52.052;8.354;2022-08-21T07:47:49;100762.00;;;29.80
16956;BMP180;8594;52.052;8.354;2022-08-21T07:50:18;100753.00;;;29.40
16956;BMP180;8594;52.052;8.354;2022-08-21T07:52:45;100755.00;;;30.30
16956;BMP180;8594;52.052;8.354;2022-08-21T07:55:17;100757.00;;;30.40
16956;BMP180;8594;52.052;8.354;2022-08-21T07:57:45;100758.00;;;30.60
16956;BMP180;8594;52.052;8.354;2022-08-21T08:00:16;100760.00;;;30.80
16956;BMP180;8594;52.052;8.354;2022-08-21T08:02:47;100759.00;;;31.40
16956;BMP180;8594;52.052;8.354;2022-08-21T08:05:19;100762.00;;;30.60
16956;BMP180;8594;52.052;8.354;2022-08-21T08:07:46;100764.00;;;30.00
16956;BMP180;8594;52.052;8.354;2022-08-21T08:10:16;100764.00;;;30.60
16956;BMP180;8594;52.052;8.354;2022-08-21T08:12:44;100760.00;;;30.30
16956;BMP180;8594;52.052;8.354;2022-08-21T08:15:16;100756.00;;;30.80
16956;BMP180;8594;52.052;8.354;2022-08-21T08:17:43;100765.00;;;30.60
16956;BMP180;8594;52.052;8.354;2022-08-21T08:20:13;100762.00;;;29.80
16956;BMP180;8594;52.052;8.354;2022-08-21T08:22:41;100767.00;;;30.70
16956;BMP180;8594;52.052;8.354;2022-08-21T08:25:11;100762.00;;;31.20
16956;BMP180;8594;52.052;8.354;2022-08-21T08:27:40;100753.00;;;30.00
16956;BMP180;8594;52.052;8.354;2022-08-21T08:30:12;100759.00;;;30.00
16956;BMP180;8594;52.052;8.354;2022-08-21T08:32:40;100754.00;;;31.20
16956;BMP180;8594;52.052;8.354;2022-08-21T08:35:11;100759.00;;;31.60
16956;BMP180;8594;52.052;8.354;2022-08-21T08:37:42;100758.00;;;30.50
16956;BMP180;8594;52.052;8.354;2022-08-21T08:40:14;100746.00;;;30.30
16956;BMP180;8594;52.052;8.354;2022-08-21T08:42:46;100749.00;;;30.20
16956;BMP180;8594;52.052;8.354;2022-08-21T08:45:20;100744.00;;;29.70
16956;BMP180;8594;52.052;8.354;2022-08-21T08:47:55;100746.00;;;30.20
16956;BMP180;8594;52.052;8.354;2022-08-21T08:50:28;100738.00;;;30.60
16956;BMP180;8594;52.052;8.354;2022-08-21T08:53:04;100736.00;;;31.20
16956;BMP180;8594;52.052;8.354;2022-08-21T08:55:37;100741.00;;;30.10
16956;BMP180;8594;52.052;8.354;2022-08-21T08:58:06;100741.00;;;30.10
16956;BMP180;8594;52.052;8.354;2022-08-21T09:00:34;100745.00;;;29.70
16956;BMP180;8594;52.052;8.354;2022-08-21T09:03:03;100738.00;;;30.20
16956;BMP180;8594;52.052;8.354;2022-08-21T09:05:42;100738.00;;;30.40
16956;BMP180;8594;52.052;8.354;2022-08-21T09:08:43;100743.00;;;29.70
16956;BMP180;8594;52.052;8.354;2022-08-21T09:11:23;100745.00;;;29.40
16956;BMP180;8594;52.052;8.354;2022-08-21T09:14:04;100737.00;;;29.70
16956;BMP180;8594;52.052;8.354;2022-08-21T09:16:47;100737.00;;;30.10
16956;BMP180;8594;52.052;8.354;2022-08-21T09:19:39;100731.00;;;30.80
16956;BMP180;8594;52.052;8.354;2022-08-21T09:22:19;100732.00;;;30.50
16956;BMP180;8594;52.052;8.354;2022-08-21T09:25:01;100721.00;;;30.80
16956;BMP180;8594;52.052;8.354;2022-08-21T09:27:33;100730.00;;;30.40
16956;BMP180;8594;52.052;8.354;2022-08-21T09:30:06;100730.00;;;29.70
16956;BMP180;8594;52.052;8.354;2022-08-21T09:32:35;100724.00;;;30.30
16956;BMP180;8594;52.052;8.354;2022-08-21T09:35:07;100721.00;;;29.50
16956;BMP180;8594;52.052;8.354;2022-08-21T09:37:47;100737.00;;;29.70
16956;BMP180;8594;52.052;8.354;2022-08-21T09:40:26;100727.00;;;29.20
16956;BMP180;8594;52.052;8.354;2022-08-21T09:42:57;100724.00;;;30.00
16956;BMP180;8594;52.052;8.354;2022-08-21T09:45:27;100716.00;;;30.00
16956;BMP180;8594;52.052;8.354;2022-08-21T09:47:54;100715.00;;;29.80
16956;BMP180;8594;52.052;8.354;2022-08-21T09:50:25;100722.00;;;29.70
16956;BMP180;8594;52.052;8.354;2022-08-21T09:52:58;100709.00;;;29.20
16956;BMP180;8594;52.052;8.354;2022-08-21T09:55:33;100716.00;;;29.00
16956;BMP180;8594;52.052;8.354;2022-08-21T09:58:19;100724.00;;;29.70
16956;BMP180;8594;52.052;8.354;2022-08-21T10:00:59;100719.00;;;29.40
16956;BMP180;8594;52.052;8.354;2022-08-21T10:03:26;100717.00;;;29.00
16956;BMP180;8594;52.052;8.354;2022-08-21T10:05:58;100718.00;;;29.50
16956;BMP180;8594;52.052;8.354;2022-08-21T10:08:28;100709.00;;;29.60
16956;BMP180;8594;52.052;8.354;2022-08-21T10:11:02;100710.00;;;29.70
16956;BMP180;8594;52.052;8.354;2022-08-21T10:13:49;100708.00;;;30.00
16956;BMP180;8594;52.052;8.354;2022-08-21T10:16:32;100701.00;;;28.60
16956;BMP180;8594;52.052;8.354;2022-08-21T10:19:15;100687.00;;;29.90
16956;BMP180;8594;52.052;8.354;2022-08-21T10:21:59;100701.00;;;30.10
16956;BMP180;8594;52.052;8.354;2022-08-21T10:24:31;100690.00;;;29.80
16956;BMP180;8594;52.052;8.354;2022-08-21T10:27:14;100686.00;;;29.80
16956;BMP180;8594;52.052;8.354;2022-08-21T10:29:51;100693.00;;;30.10
16956;BMP180;8594;52.052;8.354;2022-08-21T10:32:37;100684.00;;;29.90
16956;BMP180;8594;52.052;8.354;2022-08-21T10:35:13;100686.00;;;30.00
16956;BMP180;8594;52.052;8.354;2022-08-21T10:38:11;100680.00;;;30.70
16956;BMP180;8594;52.052;8.354;2022-08-21T10:40:56;100689.00;;;30.10
16956;BMP180;8594;52.052;8.354;2022-08-21T10:43:36;100677.00;;;30.30
16956;BMP180;8594;52.052;8.354;2022-08-21T10:46:17;100679.00;;;31.10
16956;BMP180;8594;52.052;8.354;2022-08-21T10:48:54;100673.00;;;31.30
16956;BMP180;8594;52.052;8.354;2022-08-21T10:51:33;100673.00;;;30.80
16956;BMP180;8594;52.052;8.354;2022-08-21T10:54:10;100675.00;;;30.50
16956;BMP180;8594;52.052;8.354;2022-08-21T10:56:41;100686.00;;;28.80
16956;BMP180;8594;52.052;8.354;2022-08-21T10:59:28;100675.00;;;28.80
16956;BMP180;8594;52.052;8.354;2022-08-21T11:02:03;100682.00;;;29.60
16956;BMP180;8594;52.052;8.354;2022-08-21T11:04:42;100676.00;;;28.80
16956;BMP180;8594;52.052;8.354;2022-08-21T11:07:21;100669.00;;;29.10
16956;BMP180;8594;52.052;8.354;2022-08-21T11:09:49;100669.00;;;30.40
16956;BMP180;8594;52.052;8.354;2022-08-21T11:12:27;100667.00;;;30.20
16956;BMP180;8594;52.052;8.354;2022-08-21T11:15:00;100673.00;;;30.50
16956;BMP180;8594;52.052;8.354;2022-08-21T11:17:35;100675.00;;;30.30
16956;BMP180;8594;52.052;8.354;2022-08-21T11:20:11;100669.00;;;30.40
16956;BMP180;8594;52.052;8.354;2022-08-21T11:22:49;100667.00;;;30.10
16956;BMP180;8594;52.052;8.354;2022-08-21T11:25:23;100671.00;;;30.20
16956;BMP180;8594;52.052;8.354;2022-08-21T11:27:58;100669.00;;;29.70
16956;BMP180;8594;52.052;8.354;2022-08-21T11:30:36;100669.00;;;30.50
16956;BMP180;8594;52.052;8.354;2022-08-21T11:33:28;100671.00;;;29.80
16956;BMP180;8594;52.052;8.354;2022-08-21T11:36:11;100673.00;;;30.20
16956;BMP180;8594;52.052;8.354;2022-08-21T11:38:42;100668.00;;;29.80
16956;BMP180;8594;52.052;8.354;2022-08-21T11:41:23;100651.00;;;30.40
16956;BMP180;8594;52.052;8.354;2022-08-21T11:44:02;100660.00;;;30.80
16956;BMP180;8594;52.052;8.354;2022-08-21T11:46:40;100680.00;;;31.10
16956;BMP180;8594;52.052;8.354;2022-08-21T11:49:30;100668.00;;;30.90
16956;BMP180;8594;52.052;8.354;2022-08-21T11:52:12;100670.00;;;31.10
16956;BMP180;8594;52.052;8.354;2022-08-21T11:54:46;100673.00;;;31.10
16956;BMP180;8594;52.052;8.354;2022-08-21T11:57:19;100666.00;;;30.00
16956;BMP180;8594;52.052;8.354;2022-08-21T11:59:54;100664.00;;;30.80
16956;BMP180;8594;52.052;8.354;2022-08-21T12:02:28;100660.00;;;30.80
16956;BMP180;8594;52.052;8.354;2022-08-21T12:04:59;100667.00;;;31.00
16956;BMP180;8594;52.052;8.354;2022-08-21T12:07:38;100672.00;;;30.50
16956;BMP180;8594;52.052;8.354;2022-08-21T12:10:10;100666.00;;;30.20
16956;BMP180;8594;52.052;8.354;2022-08-21T12:12:41;100658.00;;;31.30
16956;BMP180;8594;52.052;8.354;2022-08-21T12:15:26;100668.00;;;31.00
16956;BMP180;8594;52.052;8.354;2022-08-21T12:18:00;100666.00;;;31.40
16956;BMP180;8594;52.052;8.354;2022-08-21T12:20:42;100671.00;;;31.30
16956;BMP180;8594;52.052;8.354;2022-08-21T12:23:25;100672.00;;;30.70
16956;BMP180;8594;52.052;8.354;2022-08-21T12:26:24;100655.00;;;31.10
16956;BMP180;8594;52.052;8.354;2022-08-21T12:29:11;100664.00;;;30.80
16956;BMP180;8594;52.052;8.354;2022-08-21T12:31:54;100655.00;;;30.70
16956;BMP180;8594;52.052;8.354;2022-08-21T12:34:30;100655.00;;;30.70
16956;BMP180;8594;52.052;8.354;2022-08-21T12:37:02;100659.00;;;31.00
16956;BMP180;8594;52.052;8.354;2022-08-21T12:39:36;100652.00;;;31.60
16956;BMP180;8594;52.052;8.354;2022-08-21T12:42:11;100656.00;;;31.80
16956;BMP180;8594;52.052;8.354;2022-08-21T12:44:47;100651.00;;;31.40
16956;BMP180;8594;52.052;8.354;2022-08-21T12:47:25;100660.00;;;31.10
16956;BMP180;8594;52.052;8.354;2022-08-21T12:50:01;100655.00;;;31.10
16956;BMP180;8594;52.052;8.354;2022-08-21T12:52:34;100655.00;;;31.40
16956;BMP180;8594;52.052;8.354;2022-08-21T12:55:04;100652.00;;;30.90
16956;BMP180;8594;52.052;8.354;2022-08-21T12:57:31;100651.00;;;30.90
16956;BMP180;8594;52.052;8.354;2022-08-21T13:00:00;100650.00;;;31.50
16956;BMP180;8594;52.052;8.354;2022-08-21T13:02:32;100651.00;;;30.60
16956;BMP180;8594;52.052;8.354;2022-08-21T13:05:04;100651.00;;;30.70
16956;BMP180;8594;52.052;8.354;2022-08-21T13:07:34;100648.00;;;30.40
16956;BMP180;8594;52.052;8.354;2022-08-21T13:10:14;100657.00;;;31.10
16956;BMP180;8594;52.052;8.354;2022-08-21T13:12:43;100640.00;;;30.60
16956;BMP180;8594;52.052;8.354;2022-08-21T13:15:11;100645.00;;;31.20
16956;BMP180;8594;52.052;8.354;2022-08-21T13:17:43;100639.00;;;31.00
16956;BMP180;8594;52.052;8.354;2022-08-21T13:20:21;100648.00;;;31.50
16956;BMP180;8594;52.052;8.354;2022-08-21T13:22:49;100629.00;;;31.60
16956;BMP180;8594;52.052;8.354;2022-08-21T13:25:21;100641.00;;;31.40
16956;BMP180;8594;52.052;8.354;2022-08-21T13:28:00;100635.00;;;31.00
16956;BMP180;8594;52.052;8.354;2022-08-21T13:30:28;100623.00;;;31.60
16956;BMP180;8594;52.052;8.354;2022-08-21T13:33:01;100639.00;;;31.50
16956;BMP180;8594;52.052;8.354;2022-08-21T13:35:35;100636.00;;;31.30
16956;BMP180;8594;52.052;8.354;2022-08-21T13:38:05;100633.00;;;31.00
16956;BMP180;8594;52.052;8.354;2022-08-21T13:40:42;100632.00;;;31.60
16956;BMP180;8594;52.052;8.354;2022-08-21T13:43:15;100637.00;;;31.20
16956;BMP180;8594;52.052;8.354;2022-08-21T13:45:49;100634.00;;;31.00
16956;BMP180;8594;52.052;8.354;2022-08-21T13:48:17;100638.00;;;30.70
16956;BMP180;8594;52.052;8.354;2022-08-21T13:50:45;100649.00;;;30.10
16956;BMP180;8594;52.052;8.354;2022-08-21T13:53:28;100649.00;;;30.70
16956;BMP180;8594;52.052;8.354;2022-08-21T13:55:59;100649.00;;;30.70
16956;BMP180;8594;52.052;8.354;2022-08-21T13:58:28;100641.00;;;30.90
16956;BMP180;8594;52.052;8.354;2022-08-21T14:00:58;100644.00;;;31.60
16956;BMP180;8594;52.052;8.354;2022-08-21T14:03:33;100642.00;;;30.80
16956;BMP180;8594;52.052;8.354;2022-08-21T14:06:01;100648.00;;;31.10
16956;BMP180;8594;52.052;8.354;2022-08-21T14:08:34;100653.00;;;30.80
16956;BMP180;8594;52.052;8.354;2022-08-21T14:11:06;100645.00;;;30.70
16956;BMP180;8594;52.052;8.354;2022-08-21T14:13:40;100644.00;;;31.20
16956;BMP180;8594;52.052;8.354;2022-08-21T14:16:17;100655.00;;;30.60
16956;BMP180;8594;52.052;8.354;2022-08-21T14:18:52;100652.00;;;31.10
16956;BMP180;8594;52.052;8.354;2022-08-21T14:21:31;100652.00;;;31.00
16956;BMP180;8594;52.052;8.354;2022-08-21T14:24:11;100643.00;;;30.90
16956;BMP180;8594;52.052;8.354;2022-08-21T14:26:51;100642.00;;;30.70
16956;BMP180;8594;52.052;8.354;2022-08-21T14:29:21;100652.00;;;30.60
16956;BMP180;8594;52.052;8.354;2022-08-21T14:31:51;100657.00;;;30.40